Silver Ridge, Maine
Current Conditions -  °F | °C
As of 2:09 PM on Friday 24 Oct 2014 (Local Time) from KMLT Reporting Station
Light Rain Light Rain  
Wind Chill: 40°   Ceiling: 1300
Heat Index: 45°   Visibility: 4mi
Dew Point: 42°   Wind: 9mph
Humidity: 90%   Direction: 350°N
Pressure: 29.68"   Gusts: NA
Location:  45.8047°N, 68.2984°W
Report Text: KMLT 241809Z AUTO 35008KT 4SM -RA BR OVC013 07/06 A2968 RMK AO2 P0002 T00720056
Loading
Personal Weather Stations






























Interactive Weather Map
Tropical Storm Tracking
New forecast layout! Learn more

10-Day Weather Forecast

Advertisements
Track Severe Weather on mobile